createdAt,value
2017-10-15T00:00:26.197Z,20.80
2017-10-15T00:01:26.163Z,17.90
2017-10-15T00:02:26.128Z,18.80
2017-10-15T00:03:26.095Z,21.90
2017-10-15T00:04:26.061Z,20.50
2017-10-15T00:05:26.027Z,17.10
2017-10-15T00:06:25.991Z,23.30
2017-10-15T00:07:25.959Z,23.70
2017-10-15T00:08:25.923Z,18.30
2017-10-15T00:09:25.891Z,27.20
2017-10-15T00:10:25.857Z,23.10
2017-10-15T00:11:25.824Z,24.80
2017-10-15T00:12:25.788Z,22.00
2017-10-15T00:13:25.755Z,20.50
2017-10-15T00:14:25.721Z,26.10
2017-10-15T00:15:25.685Z,21.70
2017-10-15T00:16:25.652Z,21.30
2017-10-15T00:17:25.619Z,20.10
2017-10-15T00:18:25.584Z,26.90
2017-10-15T00:19:25.548Z,25.30
2017-10-15T00:20:25.520Z,24.80
2017-10-15T00:21:25.488Z,22.70
2017-10-15T00:22:25.448Z,26.00
2017-10-15T00:23:25.414Z,22.70
2017-10-15T00:24:25.384Z,29.00
2017-10-15T00:25:25.346Z,28.80
2017-10-15T00:26:25.319Z,20.90
2017-10-15T00:27:25.277Z,20.30
2017-10-15T00:28:25.243Z,21.70
2017-10-15T00:29:25.210Z,24.20
2017-10-15T00:30:25.176Z,19.30
2017-10-15T00:31:25.143Z,25.90
2017-10-15T00:32:25.112Z,29.90
2017-10-15T00:33:25.075Z,25.90
2017-10-15T00:34:25.041Z,26.80
2017-10-15T00:35:25.018Z,33.20
2017-10-15T00:36:24.971Z,24.60
2017-10-15T00:37:24.937Z,25.50
2017-10-15T00:38:25.560Z,25.40
2017-10-15T00:39:24.869Z,22.30
2017-10-15T00:40:24.834Z,23.80
2017-10-15T00:41:24.808Z,29.80
2017-10-15T00:42:24.766Z,21.40
2017-10-15T00:43:24.733Z,25.20
2017-10-15T00:44:24.699Z,25.40
2017-10-15T00:45:24.661Z,21.00
2017-10-15T00:46:24.633Z,23.50
2017-10-15T00:47:24.599Z,23.50
2017-10-15T00:48:24.562Z,21.10
2017-10-15T00:49:24.531Z,22.00
2017-10-15T00:50:24.494Z,29.00
2017-10-15T00:51:24.459Z,27.60
2017-10-15T00:52:24.426Z,24.10
2017-10-15T00:53:24.393Z,29.50
2017-10-15T00:54:24.359Z,24.70
2017-10-15T00:55:24.340Z,24.00
2017-10-15T00:56:24.289Z,24.30
2017-10-15T00:57:24.256Z,24.60
2017-10-15T00:58:24.222Z,26.10
2017-10-15T00:59:24.198Z,29.70
2017-10-15T01:00:24.152Z,31.90
2017-10-15T01:01:24.120Z,32.50
2017-10-15T01:02:24.086Z,29.80
2017-10-15T01:03:24.052Z,35.40
2017-10-15T01:04:24.018Z,37.40
2017-10-15T01:05:23.985Z,25.60
2017-10-15T01:06:23.951Z,26.80
2017-10-15T01:07:23.917Z,27.10
2017-10-15T01:08:23.881Z,31.00
2017-10-15T01:09:23.846Z,25.40
2017-10-15T01:10:23.811Z,29.40
2017-10-15T01:11:24.125Z,30.60
2017-10-15T01:12:23.743Z,41.30
2017-10-15T01:13:23.713Z,35.90
2017-10-15T01:14:23.676Z,34.10
2017-10-15T01:15:23.642Z,27.60
2017-10-15T01:16:23.608Z,25.90
2017-10-15T01:17:23.570Z,26.10
2017-10-15T01:18:23.541Z,26.70
2017-10-15T01:19:23.505Z,30.60
2017-10-15T01:20:23.471Z,28.20
2017-10-15T01:21:23.438Z,28.40
2017-10-15T01:22:23.402Z,36.40
2017-10-15T01:23:23.367Z,41.10
2017-10-15T01:24:23.332Z,39.50
2017-10-15T01:25:23.299Z,39.90
2017-10-15T01:26:23.264Z,40.20
2017-10-15T01:27:23.228Z,42.70
2017-10-15T01:28:23.195Z,41.60
2017-10-15T01:29:23.159Z,39.40
2017-10-15T01:30:23.124Z,46.80
2017-10-15T01:31:23.088Z,43.70
2017-10-15T01:32:23.051Z,42.30
2017-10-15T01:33:23.020Z,38.30
2017-10-15T01:34:22.985Z,43.20
2017-10-15T01:35:22.950Z,37.90
2017-10-15T01:36:22.914Z,40.80
2017-10-15T01:37:22.881Z,39.50
2017-10-15T01:38:23.011Z,38.80
2017-10-15T01:39:22.815Z,32.90
2017-10-15T01:40:22.775Z,36.30
2017-10-15T01:41:22.741Z,33.70
2017-10-15T01:42:22.706Z,30.30
2017-10-15T01:43:22.669Z,25.90
2017-10-15T01:44:22.636Z,25.20
2017-10-15T01:45:22.601Z,29.20
2017-10-15T01:46:22.567Z,36.30
2017-10-15T01:47:22.533Z,37.20
2017-10-15T01:48:22.498Z,33.40
2017-10-15T01:49:22.464Z,32.40
2017-10-15T01:50:22.431Z,33.90
2017-10-15T01:51:22.393Z,30.40
2017-10-15T01:52:22.360Z,39.80
2017-10-15T01:53:22.325Z,29.30
2017-10-15T01:54:22.289Z,36.20
2017-10-15T01:55:22.255Z,42.40
2017-10-15T01:56:22.220Z,37.30
2017-10-15T01:57:22.184Z,36.50
2017-10-15T01:58:22.600Z,32.70
2017-10-15T01:59:22.116Z,43.60
2017-10-15T02:00:22.081Z,46.00
2017-10-15T02:01:22.048Z,43.10
2017-10-15T02:02:22.015Z,46.60
2017-10-15T02:03:21.978Z,46.20
2017-10-15T02:04:21.942Z,40.90
2017-10-15T02:05:21.909Z,39.60
2017-10-15T02:06:21.873Z,37.30
2017-10-15T02:07:21.838Z,39.40
2017-10-15T02:08:21.899Z,37.20
2017-10-15T02:09:21.770Z,30.50
2017-10-15T02:10:21.735Z,35.10
2017-10-15T02:11:21.699Z,32.40
2017-10-15T02:12:21.665Z,38.70
2017-10-15T02:13:21.632Z,40.60
2017-10-15T02:14:21.596Z,40.00
2017-10-15T02:15:21.562Z,36.10
2017-10-15T02:16:21.527Z,38.90
2017-10-15T02:17:21.491Z,47.70
2017-10-15T02:18:21.458Z,38.50
2017-10-15T02:19:21.423Z,37.70
2017-10-15T02:20:21.394Z,34.20
2017-10-15T02:21:21.354Z,40.10
2017-10-15T02:22:21.320Z,43.10
2017-10-15T02:23:21.284Z,54.00
2017-10-15T02:24:21.249Z,56.70
2017-10-15T02:25:21.217Z,55.80
2017-10-15T02:26:21.182Z,50.70
2017-10-15T02:27:21.152Z,51.70
2017-10-15T02:28:21.111Z,50.50
2017-10-15T02:29:21.076Z,46.80
2017-10-15T02:30:21.042Z,46.10
2017-10-15T02:31:21.006Z,41.50
2017-10-15T02:32:20.973Z,38.00
2017-10-15T02:33:20.938Z,41.80
2017-10-15T02:34:20.904Z,40.90
2017-10-15T02:35:20.866Z,39.70
2017-10-15T02:36:20.832Z,38.40
2017-10-15T02:37:20.799Z,35.40
2017-10-15T02:38:20.765Z,44.70
2017-10-15T02:39:20.727Z,41.70
2017-10-15T02:40:20.694Z,36.80
2017-10-15T02:41:20.661Z,37.80
2017-10-15T02:42:20.626Z,38.10
2017-10-15T02:43:20.589Z,37.30
2017-10-15T02:44:20.559Z,34.70
2017-10-15T02:45:20.521Z,36.00
2017-10-15T02:46:20.507Z,37.00
2017-10-15T02:47:20.451Z,35.90
2017-10-15T02:48:20.417Z,33.90
2017-10-15T02:49:20.382Z,37.50
2017-10-15T02:50:20.348Z,35.50
2017-10-15T02:51:20.317Z,31.10
2017-10-15T02:52:20.279Z,35.50
2017-10-15T02:53:20.247Z,34.60
2017-10-15T02:54:20.209Z,36.60
2017-10-15T02:55:20.172Z,31.40
2017-10-15T02:56:20.139Z,31.60
2017-10-15T02:57:20.105Z,34.40
2017-10-15T02:58:20.070Z,32.40
2017-10-15T02:59:20.034Z,33.10
2017-10-15T03:00:20.003Z,34.40
2017-10-15T03:01:19.969Z,37.60
2017-10-15T03:02:19.931Z,33.70
2017-10-15T03:03:19.896Z,32.30
2017-10-15T03:04:19.871Z,30.60
2017-10-15T03:05:19.827Z,35.00
2017-10-15T03:06:19.815Z,36.10
2017-10-15T03:07:19.758Z,32.80
2017-10-15T03:08:19.723Z,33.80
2017-10-15T03:09:19.687Z,34.30
2017-10-15T03:10:19.653Z,29.30
2017-10-15T03:11:19.617Z,40.00
2017-10-15T03:12:19.582Z,37.20
2017-10-15T03:13:19.547Z,35.10
2017-10-15T03:14:19.514Z,32.00
2017-10-15T03:15:19.497Z,37.90
2017-10-15T03:16:19.443Z,34.80
2017-10-15T03:17:19.407Z,34.70
2017-10-15T03:18:19.373Z,32.30
2017-10-15T03:19:19.338Z,37.20
2017-10-15T03:20:19.304Z,38.30
2017-10-15T03:21:19.270Z,34.70
2017-10-15T03:22:19.236Z,34.20
2017-10-15T03:23:19.199Z,38.40
2017-10-15T03:24:19.164Z,34.40
2017-10-15T03:25:19.144Z,31.80
2017-10-15T03:26:19.096Z,35.70
2017-10-15T03:27:19.303Z,36.50
2017-10-15T03:28:19.027Z,32.50
2017-10-15T03:29:18.990Z,30.20
2017-10-15T03:30:18.957Z,32.20
2017-10-15T03:31:18.919Z,34.70
2017-10-15T03:32:18.885Z,37.30
2017-10-15T03:33:18.851Z,34.50
2017-10-15T03:34:18.815Z,36.00
2017-10-15T03:35:18.781Z,36.10
2017-10-15T03:36:18.746Z,35.30
2017-10-15T03:37:18.713Z,33.60
2017-10-15T03:38:18.676Z,32.20
2017-10-15T03:39:18.643Z,34.10
2017-10-15T03:40:18.606Z,33.90
2017-10-15T03:41:18.573Z,32.30
2017-10-15T03:42:18.541Z,33.40
2017-10-15T03:43:18.503Z,35.30
2017-10-15T03:44:18.467Z,31.60
2017-10-15T03:45:18.434Z,32.70
2017-10-15T03:46:18.398Z,27.20
2017-10-15T03:47:18.363Z,27.60
2017-10-15T03:48:18.328Z,32.80
2017-10-15T03:49:18.292Z,29.00
2017-10-15T03:50:18.260Z,30.90
2017-10-15T03:51:18.223Z,31.40
2017-10-15T03:52:18.189Z,27.10
2017-10-15T03:53:18.156Z,28.00
2017-10-15T03:54:18.123Z,25.40
2017-10-15T03:55:18.085Z,25.70
2017-10-15T03:56:18.050Z,28.90
2017-10-15T03:57:18.017Z,27.50
2017-10-15T03:58:17.984Z,25.80
2017-10-15T03:59:17.947Z,24.00
2017-10-15T04:00:17.916Z,31.40
2017-10-15T04:01:17.878Z,30.00
2017-10-15T04:02:17.844Z,28.20
2017-10-15T04:03:17.807Z,34.50
2017-10-15T04:04:17.774Z,29.10
2017-10-15T04:05:17.745Z,28.40
2017-10-15T04:06:17.705Z,33.00
2017-10-15T04:07:17.670Z,27.30
2017-10-15T04:08:17.636Z,29.30
2017-10-15T04:09:17.600Z,31.20
2017-10-15T04:10:17.566Z,26.00
2017-10-15T04:11:17.532Z,25.60
2017-10-15T04:12:17.497Z,25.80
2017-10-15T04:13:17.467Z,28.10
2017-10-15T04:14:17.428Z,32.20
2017-10-15T04:15:17.392Z,33.40
2017-10-15T04:16:17.357Z,28.00
2017-10-15T04:17:17.323Z,30.80
2017-10-15T04:18:17.287Z,31.70
2017-10-15T04:19:17.253Z,30.10
2017-10-15T04:20:17.215Z,32.80
2017-10-15T04:21:17.184Z,29.70
2017-10-15T04:22:17.150Z,30.50
2017-10-15T04:23:17.114Z,28.40
2017-10-15T04:24:17.080Z,27.40
2017-10-15T04:25:17.047Z,29.40
2017-10-15T04:26:17.011Z,32.60
2017-10-15T04:27:16.975Z,32.60
2017-10-15T04:28:16.940Z,29.30
2017-10-15T04:29:16.907Z,32.50
2017-10-15T04:30:16.872Z,35.90
2017-10-15T04:31:16.836Z,26.00
2017-10-15T04:32:16.802Z,26.60
2017-10-15T04:33:16.766Z,31.40
2017-10-15T04:34:16.731Z,30.20
2017-10-15T04:35:16.698Z,31.60
2017-10-15T04:36:16.664Z,32.40
2017-10-15T04:37:16.630Z,38.00
2017-10-15T04:38:16.593Z,33.70
2017-10-15T04:39:16.558Z,31.40
2017-10-15T04:40:16.524Z,33.10
2017-10-15T04:41:16.490Z,36.30
2017-10-15T04:42:16.454Z,31.80
2017-10-15T04:43:16.419Z,30.30
2017-10-15T04:44:16.386Z,31.20
2017-10-15T04:45:16.355Z,31.00
2017-10-15T04:46:16.314Z,32.20
2017-10-15T04:47:16.280Z,38.30
2017-10-15T04:48:16.245Z,33.40
2017-10-15T04:49:16.210Z,33.40
2017-10-15T04:50:16.176Z,32.60
2017-10-15T04:51:16.139Z,32.70
2017-10-15T04:52:16.106Z,34.00
2017-10-15T04:53:16.073Z,33.40
2017-10-15T04:54:16.036Z,31.90
2017-10-15T04:55:16.002Z,29.90
2017-10-15T04:56:15.967Z,35.90
2017-10-15T04:57:15.931Z,34.90
2017-10-15T04:58:15.896Z,33.90
2017-10-15T04:59:15.863Z,35.00
2017-10-15T05:00:15.827Z,30.50
2017-10-15T05:01:15.792Z,32.30
2017-10-15T05:02:15.756Z,33.10
2017-10-15T05:03:15.722Z,37.00
2017-10-15T05:04:15.688Z,36.40
2017-10-15T05:05:15.652Z,44.60
2017-10-15T05:06:15.617Z,35.60
2017-10-15T05:07:15.582Z,35.30
2017-10-15T05:08:15.546Z,38.10
2017-10-15T05:09:15.512Z,35.90
2017-10-15T05:10:15.477Z,43.20
2017-10-15T05:11:15.442Z,31.00
2017-10-15T05:12:15.408Z,37.70
2017-10-15T05:13:15.373Z,36.90
2017-10-15T05:14:15.338Z,38.20
2017-10-15T05:15:15.302Z,35.30
2017-10-15T05:16:15.267Z,36.80
2017-10-15T05:17:15.443Z,37.00
2017-10-15T05:18:15.198Z,43.70
2017-10-15T05:19:15.165Z,37.80
2017-10-15T05:20:15.127Z,34.50
2017-10-15T05:21:15.095Z,41.20
2017-10-15T05:22:15.059Z,44.40
2017-10-15T05:23:15.022Z,39.40
2017-10-15T05:24:15.314Z,36.00
2017-10-15T05:25:14.952Z,39.90
2017-10-15T05:26:15.572Z,35.20
2017-10-15T05:27:14.884Z,38.40
2017-10-15T05:28:14.846Z,40.80
2017-10-15T05:29:14.814Z,34.30
2017-10-15T05:30:14.781Z,38.60
2017-10-15T05:31:14.741Z,43.00
2017-10-15T05:32:14.710Z,42.40
2017-10-15T05:33:14.673Z,42.70
2017-10-15T05:34:14.641Z,48.00
2017-10-15T05:35:14.604Z,41.20
2017-10-15T05:36:14.571Z,42.60
2017-10-15T05:37:14.534Z,46.60
2017-10-15T05:38:14.500Z,46.40
2017-10-15T05:39:14.466Z,48.00
2017-10-15T05:40:14.431Z,41.40
2017-10-15T05:41:14.396Z,49.40
2017-10-15T05:42:14.361Z,44.10
2017-10-15T05:43:14.324Z,45.90
2017-10-15T05:44:14.289Z,42.30
2017-10-15T05:45:14.415Z,44.70
2017-10-15T05:46:14.221Z,45.90
2017-10-15T05:47:14.185Z,43.40
2017-10-15T05:48:14.149Z,47.00
2017-10-15T05:49:14.116Z,42.60
2017-10-15T05:50:14.081Z,38.70
2017-10-15T05:51:14.046Z,46.00
2017-10-15T05:52:14.004Z,38.40
2017-10-15T05:53:13.978Z,41.90
2017-10-15T05:54:13.941Z,43.00
2017-10-15T05:55:13.905Z,41.30
2017-10-15T05:56:13.876Z,40.40
2017-10-15T05:57:13.836Z,41.70
2017-10-15T05:58:13.802Z,36.70
2017-10-15T05:59:13.765Z,39.70
2017-10-15T06:00:13.730Z,42.40
2017-10-15T06:01:13.696Z,48.70
2017-10-15T06:02:13.662Z,41.00
2017-10-15T06:03:13.625Z,40.30
2017-10-15T06:04:13.593Z,38.70
2017-10-15T06:05:13.555Z,36.70
2017-10-15T06:06:13.523Z,39.60
2017-10-15T06:07:13.491Z,36.10
2017-10-15T06:08:13.451Z,47.10
2017-10-15T06:09:13.417Z,35.10
2017-10-15T06:10:13.382Z,36.60
2017-10-15T06:11:13.348Z,39.30
2017-10-15T06:12:13.315Z,36.00
2017-10-15T06:13:13.280Z,39.20
2017-10-15T06:14:13.243Z,36.60
2017-10-15T06:15:13.208Z,33.70
2017-10-15T06:16:13.176Z,33.10
2017-10-15T06:17:13.140Z,38.50
2017-10-15T06:18:13.104Z,38.50
2017-10-15T06:19:13.068Z,31.50
2017-10-15T06:20:13.034Z,33.20
2017-10-15T06:21:13.005Z,37.00
2017-10-15T06:22:12.966Z,32.00
2017-10-15T06:23:12.931Z,32.30
2017-10-15T06:24:12.897Z,30.10
2017-10-15T06:25:12.863Z,28.30
2017-10-15T06:26:12.828Z,31.50
2017-10-15T06:27:12.794Z,29.10
2017-10-15T06:28:12.759Z,27.80
2017-10-15T06:29:12.727Z,25.90
2017-10-15T06:30:12.695Z,31.00
2017-10-15T06:31:12.657Z,33.70
2017-10-15T06:32:12.624Z,32.60
2017-10-15T06:33:12.588Z,37.70
2017-10-15T06:34:12.556Z,33.30
2017-10-15T06:35:12.521Z,32.30
2017-10-15T06:36:12.488Z,29.90
2017-10-15T06:37:12.456Z,27.00
2017-10-15T06:38:12.422Z,26.90
2017-10-15T06:39:12.389Z,26.80
2017-10-15T06:40:12.356Z,28.50
2017-10-15T06:41:12.470Z,22.80
2017-10-15T06:42:12.289Z,21.10
2017-10-15T06:43:12.256Z,19.90
2017-10-15T06:44:12.224Z,21.90
2017-10-15T06:45:12.192Z,20.50
2017-10-15T06:46:12.162Z,18.60
2017-10-15T06:47:12.126Z,19.60
2017-10-15T06:48:12.096Z,19.90
2017-10-15T06:49:12.060Z,19.40
2017-10-15T06:50:12.031Z,20.80
2017-10-15T06:51:11.998Z,17.50
2017-10-15T06:52:11.967Z,15.50
2017-10-15T06:53:11.935Z,20.50
2017-10-15T06:54:11.905Z,18.50
2017-10-15T06:55:11.872Z,17.70
2017-10-15T06:56:11.843Z,15.30
2017-10-15T06:57:11.808Z,21.70
2017-10-15T06:58:11.779Z,18.50
2017-10-15T06:59:11.747Z,15.60
2017-10-15T07:00:11.718Z,15.30
2017-10-15T07:01:11.685Z,18.20
2017-10-15T07:02:11.656Z,17.60
2017-10-15T07:03:11.623Z,16.60
2017-10-15T07:04:11.594Z,17.30
2017-10-15T07:05:11.564Z,18.50
2017-10-15T07:06:11.595Z,14.30
2017-10-15T07:07:11.504Z,15.40
2017-10-15T07:08:11.474Z,15.10
2017-10-15T07:09:11.444Z,12.80
2017-10-15T07:10:11.413Z,17.80
2017-10-15T07:11:11.383Z,12.10
2017-10-15T07:12:11.355Z,15.00
2017-10-15T07:13:11.325Z,13.00
2017-10-15T07:14:11.294Z,15.80
2017-10-15T07:15:11.265Z,20.90
2017-10-15T07:16:11.240Z,15.50
2017-10-15T07:17:11.208Z,11.80
2017-10-15T07:18:11.179Z,13.20
2017-10-15T07:19:11.151Z,18.60
2017-10-15T07:20:11.121Z,14.30
2017-10-15T07:21:11.091Z,14.90
2017-10-15T07:22:11.065Z,21.70
2017-10-15T07:23:11.036Z,15.80
2017-10-15T07:24:11.008Z,15.00
2017-10-15T07:25:10.979Z,21.00
2017-10-15T07:26:10.950Z,15.80
2017-10-15T07:27:10.921Z,28.70
2017-10-15T07:28:10.895Z,25.00
2017-10-15T07:29:10.867Z,26.90
2017-10-15T07:30:10.840Z,15.70
2017-10-15T07:31:10.808Z,22.40
2017-10-15T07:32:10.781Z,21.70
2017-10-15T07:33:10.754Z,18.40
2017-10-15T07:34:10.730Z,19.30
2017-10-15T07:35:10.698Z,21.20
2017-10-15T07:36:10.673Z,21.10
2017-10-15T07:37:10.643Z,27.40
2017-10-15T07:38:10.615Z,21.40
2017-10-15T07:39:10.594Z,15.80
2017-10-15T07:40:10.561Z,14.50
2017-10-15T07:41:10.535Z,14.80
2017-10-15T07:42:10.507Z,17.40
2017-10-15T07:43:10.481Z,17.60
2017-10-15T07:44:10.453Z,13.90
2017-10-15T07:45:10.428Z,13.90
2017-10-15T07:46:10.399Z,25.10
2017-10-15T07:47:10.373Z,13.10
2017-10-15T07:48:10.343Z,14.10
2017-10-15T07:49:10.320Z,13.70
2017-10-15T07:50:10.295Z,12.80
2017-10-15T07:51:10.269Z,13.70
2017-10-15T07:52:10.251Z,16.30
2017-10-15T07:53:14.104Z,15.40
2017-10-15T07:54:11.104Z,10.10
2017-10-15T07:55:11.105Z,17.20
2017-10-15T07:56:10.152Z,11.50
2017-10-15T07:57:10.602Z,13.10
2017-10-15T07:58:10.086Z,13.80
2017-10-15T07:59:10.443Z,11.10
2017-10-15T08:00:10.036Z,12.80
2017-10-15T08:01:10.009Z,11.70
2017-10-15T08:02:09.983Z,13.30
2017-10-15T08:03:09.960Z,12.30
2017-10-15T08:04:09.940Z,11.10
2017-10-15T08:05:09.915Z,15.70
2017-10-15T08:06:09.882Z,12.10
2017-10-15T08:07:09.851Z,13.50
2017-10-15T08:08:09.838Z,13.80
2017-10-15T08:09:09.808Z,15.30
2017-10-15T08:10:09.784Z,11.80
2017-10-15T08:11:09.758Z,15.20
2017-10-15T08:12:09.731Z,14.20
2017-10-15T08:13:09.710Z,14.40
2017-10-15T08:14:09.689Z,12.00
2017-10-15T08:15:09.661Z,16.40
2017-10-15T08:16:09.636Z,10.20
2017-10-15T08:17:09.614Z,14.70
2017-10-15T08:18:09.589Z,12.60
2017-10-15T08:19:09.573Z,11.00
2017-10-15T08:20:09.542Z,12.60
2017-10-15T08:21:09.526Z,15.80
2017-10-15T08:22:09.495Z,10.40
2017-10-15T08:23:09.473Z,13.00
2017-10-15T08:24:09.449Z,12.80
2017-10-15T08:25:09.433Z,15.00
2017-10-15T08:26:09.403Z,12.40
2017-10-15T08:27:09.381Z,17.50
2017-10-15T08:28:09.359Z,11.90
2017-10-15T08:29:09.333Z,10.10
2017-10-15T08:30:09.313Z,12.80
2017-10-15T08:31:09.294Z,16.00
2017-10-15T08:32:09.268Z,13.20
2017-10-15T08:33:09.247Z,10.90
2017-10-15T08:34:09.225Z,14.50
2017-10-15T08:35:09.203Z,10.50
2017-10-15T08:36:09.384Z,13.10
2017-10-15T08:37:09.159Z,13.00
2017-10-15T08:38:09.137Z,11.00
2017-10-15T08:39:09.122Z,11.90
2017-10-15T08:40:09.092Z,14.30
2017-10-15T08:41:09.071Z,10.90
2017-10-15T08:42:09.049Z,36.60
2017-10-15T08:43:09.028Z,52.60
2017-10-15T08:44:09.004Z,21.40
2017-10-15T08:45:08.986Z,72.40
2017-10-15T08:46:08.961Z,19.60
2017-10-15T08:47:08.942Z,19.30
2017-10-15T08:48:08.917Z,13.30
2017-10-15T08:49:08.898Z,12.60
2017-10-15T08:50:08.876Z,12.00
2017-10-15T08:51:08.853Z,10.50
2017-10-15T08:52:08.832Z,12.70
2017-10-15T08:53:08.813Z,16.40
2017-10-15T08:54:08.791Z,12.50
2017-10-15T08:55:08.768Z,12.30
2017-10-15T08:56:08.748Z,8.00
2017-10-15T08:57:08.725Z,11.30
2017-10-15T08:58:08.928Z,13.70
2017-10-15T08:59:08.698Z,9.30
2017-10-15T09:00:08.663Z,8.90
2017-10-15T09:01:08.646Z,10.50
2017-10-15T09:02:08.621Z,10.60
2017-10-15T09:03:08.601Z,10.20
2017-10-15T09:04:08.577Z,11.50
2017-10-15T09:05:08.556Z,10.40
2017-10-15T09:06:08.535Z,13.80
2017-10-15T09:07:08.513Z,12.10
2017-10-15T09:08:08.496Z,16.20
2017-10-15T09:09:08.471Z,24.00
2017-10-15T09:10:08.451Z,13.20
2017-10-15T09:11:08.429Z,18.90
2017-10-15T09:12:08.409Z,23.50
2017-10-15T09:13:08.387Z,16.40
2017-10-15T09:14:08.664Z,13.00
2017-10-15T09:15:08.345Z,13.10
2017-10-15T09:16:08.324Z,9.10
2017-10-15T09:17:08.303Z,17.50
2017-10-15T09:18:08.283Z,12.70
2017-10-15T09:19:08.261Z,16.70
2017-10-15T09:21:08.221Z,11.60
2017-10-15T09:22:08.201Z,12.50
2017-10-15T09:23:08.178Z,7.70
2017-10-15T09:24:08.964Z,11.20
2017-10-15T09:25:08.138Z,11.30
2017-10-15T09:26:08.118Z,9.90
2017-10-15T09:27:08.096Z,10.00
2017-10-15T09:28:08.076Z,14.60
2017-10-15T09:29:08.059Z,9.10
2017-10-15T09:30:08.037Z,9.80
2017-10-15T09:31:08.014Z,11.50
2017-10-15T09:32:07.994Z,8.30
2017-10-15T09:33:07.973Z,13.40
2017-10-15T09:34:07.952Z,7.10
2017-10-15T09:35:08.266Z,8.30
2017-10-15T09:36:07.912Z,10.00
2017-10-15T09:37:07.891Z,11.70
2017-10-15T09:38:08.268Z,11.20
2017-10-15T09:39:07.851Z,12.50
2017-10-15T09:40:07.830Z,56.80
2017-10-15T09:41:07.809Z,15.80
2017-10-15T09:42:07.794Z,17.50
2017-10-15T09:43:07.772Z,12.80
2017-10-15T09:44:07.753Z,11.90
2017-10-15T09:45:07.728Z,7.80
2017-10-15T09:46:07.707Z,10.60
2017-10-15T09:47:07.687Z,9.10
2017-10-15T09:48:07.668Z,14.10
2017-10-15T09:49:07.646Z,10.30
2017-10-15T09:50:07.626Z,15.00
2017-10-15T09:51:07.606Z,12.10
2017-10-15T09:52:07.586Z,9.60
2017-10-15T09:53:07.569Z,6.80
2017-10-15T09:54:07.545Z,10.60
2017-10-15T09:55:07.525Z,9.70
2017-10-15T09:56:07.504Z,10.20
2017-10-15T09:57:07.485Z,10.00
2017-10-15T09:58:07.465Z,11.70
2017-10-15T09:59:07.445Z,10.50
2017-10-15T10:00:07.425Z,10.30
2017-10-15T10:01:07.406Z,8.60
2017-10-15T10:02:07.384Z,10.50
2017-10-15T10:03:07.363Z,9.30
2017-10-15T10:04:07.345Z,11.50
2017-10-15T10:05:07.325Z,10.40
2017-10-15T10:06:07.304Z,10.20
2017-10-15T10:07:07.285Z,13.30
2017-10-15T10:08:07.270Z,10.70
2017-10-15T10:09:07.245Z,169.50
2017-10-15T10:10:07.228Z,19.10
2017-10-15T10:11:07.207Z,47.10
2017-10-15T10:12:07.186Z,38.00
2017-10-15T10:13:07.167Z,29.40
2017-10-15T10:14:07.148Z,12.80
2017-10-15T10:15:07.129Z,9.60
2017-10-15T10:16:07.110Z,7.00
2017-10-15T10:17:07.090Z,6.90
2017-10-15T10:18:07.070Z,7.30
2017-10-15T10:19:07.051Z,7.40
2017-10-15T10:20:07.034Z,10.40
2017-10-15T10:21:07.030Z,8.30
2017-10-15T10:22:06.997Z,8.50
2017-10-15T10:23:06.977Z,8.50
2017-10-15T10:24:06.958Z,8.60
2017-10-15T10:25:06.937Z,9.30
2017-10-15T10:26:06.919Z,8.20
2017-10-15T10:27:06.899Z,9.70
2017-10-15T10:28:06.881Z,7.60
2017-10-15T10:29:06.861Z,6.90
2017-10-15T10:30:06.871Z,10.10
2017-10-15T10:31:06.823Z,6.40
2017-10-15T10:32:06.804Z,6.80
2017-10-15T10:33:06.785Z,8.10
2017-10-15T10:34:06.766Z,13.00
2017-10-15T10:35:06.745Z,13.20
2017-10-15T10:36:06.727Z,10.10
2017-10-15T10:37:06.710Z,11.70
2017-10-15T10:38:06.704Z,13.80
2017-10-15T10:39:06.672Z,12.10
2017-10-15T10:40:06.652Z,17.70
2017-10-15T10:41:06.633Z,18.90
2017-10-15T10:43:07.565Z,12.50
2017-10-15T10:44:06.592Z,7.60
2017-10-15T10:45:06.558Z,7.50
2017-10-15T10:46:06.537Z,7.80
2017-10-15T10:47:06.519Z,10.00
2017-10-15T10:48:06.501Z,6.70
2017-10-15T10:49:06.481Z,8.50
2017-10-15T10:50:06.463Z,7.40
2017-10-15T10:51:06.450Z,7.70
2017-10-15T10:52:06.442Z,7.80
2017-10-15T10:53:06.407Z,7.70
2017-10-15T10:54:06.391Z,9.20
2017-10-15T10:55:06.371Z,9.20
2017-10-15T10:56:06.354Z,9.90
2017-10-15T10:57:06.335Z,8.30
2017-10-15T10:58:06.319Z,4.80
2017-10-15T10:59:06.298Z,10.60
2017-10-15T11:00:06.281Z,7.10
2017-10-15T11:01:06.264Z,7.50
2017-10-15T11:02:06.248Z,9.10
2017-10-15T11:03:06.227Z,8.20
2017-10-15T11:04:06.230Z,7.80
2017-10-15T11:05:06.193Z,8.30
2017-10-15T11:06:06.176Z,7.40
2017-10-15T11:07:06.157Z,10.70
2017-10-15T11:08:06.139Z,11.70
2017-10-15T11:09:06.122Z,9.10
2017-10-15T11:10:06.102Z,6.90
2017-10-15T11:11:06.084Z,10.10
2017-10-15T11:12:06.067Z,7.70
2017-10-15T11:13:06.051Z,9.10
2017-10-15T11:14:06.031Z,11.60
2017-10-15T11:15:06.012Z,9.80
2017-10-15T11:16:05.995Z,12.50
2017-10-15T11:17:05.980Z,10.20
2017-10-15T11:18:06.218Z,7.80
2017-10-15T11:19:05.939Z,8.60
2017-10-15T11:20:05.922Z,7.00
2017-10-15T11:21:05.907Z,13.10
2017-10-15T11:22:05.893Z,16.20
2017-10-15T11:23:05.870Z,10.90
2017-10-15T11:24:05.848Z,7.90
2017-10-15T11:25:05.833Z,8.80
2017-10-15T11:26:05.819Z,10.70
2017-10-15T11:27:05.797Z,5.40
2017-10-15T11:28:05.781Z,9.10
2017-10-15T11:29:05.762Z,8.00
2017-10-15T11:30:05.745Z,11.50
2017-10-15T11:31:05.726Z,6.00
2017-10-15T11:32:05.712Z,7.20
2017-10-15T11:33:05.690Z,10.70
2017-10-15T11:34:05.675Z,8.40
2017-10-15T11:35:05.652Z,8.00
2017-10-15T11:36:05.639Z,9.20
2017-10-15T11:37:05.622Z,6.40
2017-10-15T11:38:05.603Z,5.60
2017-10-15T11:39:05.586Z,7.00
2017-10-15T11:40:05.568Z,7.20
2017-10-15T11:41:05.551Z,12.30
2017-10-15T11:42:05.534Z,9.70
2017-10-15T11:43:05.514Z,7.50
2017-10-15T11:44:05.502Z,9.20
2017-10-15T11:45:05.480Z,9.30
2017-10-15T11:46:05.476Z,11.60
2017-10-15T11:47:05.444Z,14.10
2017-10-15T11:48:05.431Z,9.60
2017-10-15T11:49:05.409Z,7.00
2017-10-15T11:50:05.392Z,8.40
2017-10-15T11:51:05.378Z,7.20
2017-10-15T11:52:05.364Z,10.80
2017-10-15T11:53:05.338Z,9.60
2017-10-15T11:54:05.322Z,9.90
2017-10-15T11:55:05.303Z,8.00
2017-10-15T11:56:05.286Z,6.40
2017-10-15T11:57:05.269Z,6.70
2017-10-15T11:58:05.251Z,6.10
2017-10-15T11:59:05.232Z,8.60
2017-10-15T12:00:05.214Z,10.70
2017-10-15T12:01:05.197Z,9.50
2017-10-15T12:02:05.181Z,7.80
2017-10-15T12:03:05.164Z,9.20
2017-10-15T12:04:05.146Z,7.70
2017-10-15T12:05:05.130Z,9.80
2017-10-15T12:06:05.112Z,10.40
2017-10-15T12:07:05.693Z,8.20
2017-10-15T12:08:05.078Z,8.70
2017-10-15T12:09:05.064Z,8.70
2017-10-15T12:10:05.042Z,13.40
2017-10-15T12:11:05.024Z,11.20
2017-10-15T12:12:05.007Z,8.30
2017-10-15T12:13:04.992Z,9.00
2017-10-15T12:14:04.974Z,10.50
2017-10-15T12:15:04.954Z,8.30
2017-10-15T12:16:04.943Z,7.50
2017-10-15T12:17:04.924Z,8.90
2017-10-15T12:18:04.901Z,9.40
2017-10-15T12:19:04.887Z,9.30
2017-10-15T12:20:04.864Z,9.30
2017-10-15T12:21:04.844Z,7.80
2017-10-15T12:22:04.824Z,8.80
2017-10-15T12:23:04.804Z,7.40
2017-10-15T12:24:04.782Z,8.30
2017-10-15T12:25:04.764Z,9.00
2017-10-15T12:26:04.744Z,12.10
2017-10-15T12:27:04.722Z,7.40
2017-10-15T12:28:04.698Z,10.80
2017-10-15T12:29:04.696Z,10.60
2017-10-15T12:30:04.655Z,8.90
2017-10-15T12:31:04.635Z,13.80
2017-10-15T12:32:04.613Z,11.90
2017-10-15T12:33:04.596Z,10.00
2017-10-15T12:34:04.573Z,10.40
2017-10-15T12:35:04.552Z,8.60
2017-10-15T12:36:04.531Z,13.00
2017-10-15T12:37:04.514Z,11.90
2017-10-15T12:38:04.493Z,11.50
2017-10-15T12:39:04.599Z,7.50
2017-10-15T12:40:04.453Z,10.00
2017-10-15T12:41:04.434Z,16.40
2017-10-15T12:42:04.416Z,9.00
2017-10-15T12:43:04.393Z,7.40
2017-10-15T12:44:04.376Z,10.10
2017-10-15T12:45:04.363Z,10.90
2017-10-15T12:46:04.338Z,5.70
2017-10-15T12:47:04.319Z,14.40
2017-10-15T12:48:04.298Z,11.40
2017-10-15T12:49:04.281Z,7.30
2017-10-15T12:50:04.264Z,14.60
2017-10-15T12:51:04.243Z,11.40
2017-10-15T12:52:04.226Z,8.20
2017-10-15T12:53:04.206Z,13.10
2017-10-15T12:54:04.188Z,10.90
2017-10-15T12:55:04.194Z,8.90
2017-10-15T12:56:04.160Z,13.60
2017-10-15T12:57:04.132Z,12.30
2017-10-15T12:58:04.114Z,10.80